sensor_id;sensor_type;location;lat;lon;timestamp;P1;durP1;ratioP1;P2;durP2;ratioP2
76850;SDS011;65824;43.726;20.692;2023-09-19T00:00:19;8.48;;;5.43;;
76850;SDS011;65824;43.726;20.692;2023-09-19T00:02:57;8.25;;;5.47;;
76850;SDS011;65824;43.726;20.692;2023-09-19T00:05:26;7.78;;;5.13;;
76850;SDS011;65824;43.726;20.692;2023-09-19T00:07:54;7.35;;;5.07;;
76850;SDS011;65824;43.726;20.692;2023-09-19T00:10:21;8.93;;;5.30;;
76850;SDS011;65824;43.726;20.692;2023-09-19T00:12:49;9.77;;;5.50;;
76850;SDS011;65824;43.726;20.692;2023-09-19T00:15:26;8.98;;;6.15;;
76850;SDS011;65824;43.726;20.692;2023-09-19T00:17:58;10.18;;;5.63;;
76850;SDS011;65824;43.726;20.692;2023-09-19T00:20:24;9.00;;;5.63;;
76850;SDS011;65824;43.726;20.692;2023-09-19T00:22:49;10.13;;;5.15;;
76850;SDS011;65824;43.726;20.692;2023-09-19T00:25:18;10.55;;;5.75;;
76850;SDS011;65824;43.726;20.692;2023-09-19T00:27:45;10.27;;;5.82;;
76850;SDS011;65824;43.726;20.692;2023-09-19T00:30:14;7.55;;;5.15;;
76850;SDS011;65824;43.726;20.692;2023-09-19T00:32:50;8.55;;;5.63;;
76850;SDS011;65824;43.726;20.692;2023-09-19T00:35:19;9.50;;;5.68;;
76850;SDS011;65824;43.726;20.692;2023-09-19T00:37:50;11.68;;;5.63;;
76850;SDS011;65824;43.726;20.692;2023-09-19T00:40:16;9.50;;;5.53;;
76850;SDS011;65824;43.726;20.692;2023-09-19T00:42:43;9.02;;;5.75;;
76850;SDS011;65824;43.726;20.692;2023-09-19T00:45:09;9.77;;;6.22;;
76850;SDS011;65824;43.726;20.692;2023-09-19T00:47:37;8.77;;;5.50;;
76850;SDS011;65824;43.726;20.692;2023-09-19T00:50:04;8.80;;;5.43;;
76850;SDS011;65824;43.726;20.692;2023-09-19T00:52:32;9.25;;;5.97;;
76850;SDS011;65824;43.726;20.692;2023-09-19T00:55:05;9.80;;;5.32;;
76850;SDS011;65824;43.726;20.692;2023-09-19T00:57:33;10.45;;;6.10;;
76850;SDS011;65824;43.726;20.692;2023-09-19T01:00:00;8.73;;;5.38;;
76850;SDS011;65824;43.726;20.692;2023-09-19T01:02:30;9.75;;;6.05;;
76850;SDS011;65824;43.726;20.692;2023-09-19T01:04:56;8.05;;;5.65;;
76850;SDS011;65824;43.726;20.692;2023-09-19T01:07:22;9.45;;;5.70;;
76850;SDS011;65824;43.726;20.692;2023-09-19T01:09:48;10.02;;;5.60;;
76850;SDS011;65824;43.726;20.692;2023-09-19T01:12:16;10.63;;;5.50;;
76850;SDS011;65824;43.726;20.692;2023-09-19T01:14:48;8.30;;;5.38;;
76850;SDS011;65824;43.726;20.692;2023-09-19T01:17:26;9.07;;;5.72;;
76850;SDS011;65824;43.726;20.692;2023-09-19T01:20:06;10.57;;;6.13;;
76850;SDS011;65824;43.726;20.692;2023-09-19T01:28:19;10.05;;;5.70;;
76850;SDS011;65824;43.726;20.692;2023-09-19T01:31:06;8.40;;;5.20;;
76850;SDS011;65824;43.726;20.692;2023-09-19T01:33:53;11.80;;;5.85;;
76850;SDS011;65824;43.726;20.692;2023-09-19T01:36:22;8.18;;;5.05;;
76850;SDS011;65824;43.726;20.692;2023-09-19T01:38:49;10.23;;;5.72;;
76850;SDS011;65824;43.726;20.692;2023-09-19T01:41:15;8.85;;;5.32;;
76850;SDS011;65824;43.726;20.692;2023-09-19T01:43:47;9.15;;;5.78;;
76850;SDS011;65824;43.726;20.692;2023-09-19T01:46:15;8.98;;;5.13;;
76850;SDS011;65824;43.726;20.692;2023-09-19T01:48:46;9.98;;;5.28;;
76850;SDS011;65824;43.726;20.692;2023-09-19T01:51:21;9.63;;;5.72;;
76850;SDS011;65824;43.726;20.692;2023-09-19T01:54:03;8.60;;;5.30;;
76850;SDS011;65824;43.726;20.692;2023-09-19T01:59:13;8.02;;;5.18;;
76850;SDS011;65824;43.726;20.692;2023-09-19T02:01:40;9.02;;;5.45;;
76850;SDS011;65824;43.726;20.692;2023-09-19T02:04:10;8.25;;;5.68;;
76850;SDS011;65824;43.726;20.692;2023-09-19T02:06:35;9.00;;;5.57;;
76850;SDS011;65824;43.726;20.692;2023-09-19T02:09:04;8.88;;;5.43;;
76850;SDS011;65824;43.726;20.692;2023-09-19T02:11:29;9.38;;;5.53;;
76850;SDS011;65824;43.726;20.692;2023-09-19T02:13:55;10.38;;;5.75;;
76850;SDS011;65824;43.726;20.692;2023-09-19T02:16:20;8.45;;;5.40;;
76850;SDS011;65824;43.726;20.692;2023-09-19T02:18:49;9.63;;;6.15;;
76850;SDS011;65824;43.726;20.692;2023-09-19T02:21:15;7.90;;;5.95;;
76850;SDS011;65824;43.726;20.692;2023-09-19T02:23:42;9.95;;;5.50;;
76850;SDS011;65824;43.726;20.692;2023-09-19T02:26:08;9.25;;;5.82;;
76850;SDS011;65824;43.726;20.692;2023-09-19T02:28:34;12.38;;;6.22;;
76850;SDS011;65824;43.726;20.692;2023-09-19T02:31:01;9.40;;;5.82;;
76850;SDS011;65824;43.726;20.692;2023-09-19T02:33:30;8.48;;;5.25;;
76850;SDS011;65824;43.726;20.692;2023-09-19T02:35:57;9.65;;;5.93;;
76850;SDS011;65824;43.726;20.692;2023-09-19T02:38:23;8.13;;;5.35;;
76850;SDS011;65824;43.726;20.692;2023-09-19T02:40:51;8.52;;;5.22;;
76850;SDS011;65824;43.726;20.692;2023-09-19T02:43:18;10.90;;;5.78;;
76850;SDS011;65824;43.726;20.692;2023-09-19T02:45:45;8.20;;;5.47;;
76850;SDS011;65824;43.726;20.692;2023-09-19T02:48:20;11.32;;;5.95;;
76850;SDS011;65824;43.726;20.692;2023-09-19T02:50:46;8.80;;;5.63;;
76850;SDS011;65824;43.726;20.692;2023-09-19T02:53:15;9.38;;;5.25;;
76850;SDS011;65824;43.726;20.692;2023-09-19T02:55:43;9.60;;;5.65;;
76850;SDS011;65824;43.726;20.692;2023-09-19T02:58:08;9.00;;;5.70;;
76850;SDS011;65824;43.726;20.692;2023-09-19T03:00:39;7.65;;;5.10;;
76850;SDS011;65824;43.726;20.692;2023-09-19T03:03:07;8.52;;;5.38;;
76850;SDS011;65824;43.726;20.692;2023-09-19T03:05:33;12.90;;;5.78;;
76850;SDS011;65824;43.726;20.692;2023-09-19T03:07:59;9.27;;;6.07;;
76850;SDS011;65824;43.726;20.692;2023-09-19T03:10:29;10.13;;;5.47;;
76850;SDS011;65824;43.726;20.692;2023-09-19T03:12:55;10.70;;;5.50;;
76850;SDS011;65824;43.726;20.692;2023-09-19T03:15:23;8.60;;;5.45;;
76850;SDS011;65824;43.726;20.692;2023-09-19T03:17:48;8.95;;;4.88;;
76850;SDS011;65824;43.726;20.692;2023-09-19T03:20:15;9.02;;;5.38;;
76850;SDS011;65824;43.726;20.692;2023-09-19T03:22:45;8.25;;;5.15;;
76850;SDS011;65824;43.726;20.692;2023-09-19T03:25:13;9.63;;;5.18;;
76850;SDS011;65824;43.726;20.692;2023-09-19T03:27:39;7.63;;;5.07;;
76850;SDS011;65824;43.726;20.692;2023-09-19T03:30:05;8.80;;;5.03;;
76850;SDS011;65824;43.726;20.692;2023-09-19T03:32:43;7.57;;;5.20;;
76850;SDS011;65824;43.726;20.692;2023-09-19T03:35:15;6.80;;;4.75;;
76850;SDS011;65824;43.726;20.692;2023-09-19T03:37:41;8.20;;;4.78;;
76850;SDS011;65824;43.726;20.692;2023-09-19T03:40:08;8.70;;;4.88;;
76850;SDS011;65824;43.726;20.692;2023-09-19T03:42:37;6.90;;;4.95;;
76850;SDS011;65824;43.726;20.692;2023-09-19T03:45:07;11.35;;;5.15;;
76850;SDS011;65824;43.726;20.692;2023-09-19T03:47:36;8.48;;;4.45;;
76850;SDS011;65824;43.726;20.692;2023-09-19T03:50:02;8.55;;;5.55;;
76850;SDS011;65824;43.726;20.692;2023-09-19T03:52:28;8.50;;;4.93;;
76850;SDS011;65824;43.726;20.692;2023-09-19T03:54:53;7.82;;;5.18;;
76850;SDS011;65824;43.726;20.692;2023-09-19T03:57:19;8.70;;;5.40;;
76850;SDS011;65824;43.726;20.692;2023-09-19T03:59:46;7.40;;;4.95;;
76850;SDS011;65824;43.726;20.692;2023-09-19T04:02:12;8.52;;;5.10;;
76850;SDS011;65824;43.726;20.692;2023-09-19T04:04:47;10.75;;;5.60;;
76850;SDS011;65824;43.726;20.692;2023-09-19T04:07:22;7.15;;;4.88;;
76850;SDS011;65824;43.726;20.692;2023-09-19T04:09:48;7.82;;;5.13;;
76850;SDS011;65824;43.726;20.692;2023-09-19T04:12:14;9.82;;;4.82;;
76850;SDS011;65824;43.726;20.692;2023-09-19T04:14:42;9.23;;;5.25;;
76850;SDS011;65824;43.726;20.692;2023-09-19T04:17:07;7.93;;;5.10;;
76850;SDS011;65824;43.726;20.692;2023-09-19T04:19:35;8.45;;;5.03;;
76850;SDS011;65824;43.726;20.692;2023-09-19T04:22:00;8.20;;;4.65;;
76850;SDS011;65824;43.726;20.692;2023-09-19T04:24:27;9.05;;;5.72;;
76850;SDS011;65824;43.726;20.692;2023-09-19T04:26:52;7.57;;;5.22;;
76850;SDS011;65824;43.726;20.692;2023-09-19T04:29:17;8.93;;;5.50;;
76850;SDS011;65824;43.726;20.692;2023-09-19T04:31:44;9.57;;;4.95;;
76850;SDS011;65824;43.726;20.692;2023-09-19T04:34:11;7.47;;;4.80;;
76850;SDS011;65824;43.726;20.692;2023-09-19T04:36:42;8.38;;;5.05;;
76850;SDS011;65824;43.726;20.692;2023-09-19T04:39:08;8.10;;;4.80;;
76850;SDS011;65824;43.726;20.692;2023-09-19T04:41:35;7.35;;;4.78;;
76850;SDS011;65824;43.726;20.692;2023-09-19T04:44:03;6.80;;;4.50;;
76850;SDS011;65824;43.726;20.692;2023-09-19T04:46:30;7.35;;;4.63;;
76850;SDS011;65824;43.726;20.692;2023-09-19T04:48:56;8.13;;;4.40;;
76850;SDS011;65824;43.726;20.692;2023-09-19T04:51:22;9.05;;;5.03;;
76850;SDS011;65824;43.726;20.692;2023-09-19T04:53:48;8.27;;;5.00;;
76850;SDS011;65824;43.726;20.692;2023-09-19T04:56:14;10.30;;;5.18;;
76850;SDS011;65824;43.726;20.692;2023-09-19T04:58:40;7.68;;;5.20;;
76850;SDS011;65824;43.726;20.692;2023-09-19T05:01:05;9.35;;;4.78;;
76850;SDS011;65824;43.726;20.692;2023-09-19T05:03:34;7.85;;;4.68;;
76850;SDS011;65824;43.726;20.692;2023-09-19T05:06:01;8.20;;;5.45;;
76850;SDS011;65824;43.726;20.692;2023-09-19T05:08:27;8.38;;;5.22;;
76850;SDS011;65824;43.726;20.692;2023-09-19T05:10:57;7.63;;;4.93;;
76850;SDS011;65824;43.726;20.692;2023-09-19T05:13:23;9.48;;;5.45;;
76850;SDS011;65824;43.726;20.692;2023-09-19T05:15:49;10.05;;;5.40;;
76850;SDS011;65824;43.726;20.692;2023-09-19T05:18:17;12.52;;;5.88;;
76850;SDS011;65824;43.726;20.692;2023-09-19T05:20:43;8.02;;;5.05;;
76850;SDS011;65824;43.726;20.692;2023-09-19T05:23:09;7.78;;;4.50;;
76850;SDS011;65824;43.726;20.692;2023-09-19T05:25:37;8.18;;;5.10;;
76850;SDS011;65824;43.726;20.692;2023-09-19T05:28:08;8.95;;;4.53;;
76850;SDS011;65824;43.726;20.692;2023-09-19T05:30:36;7.75;;;4.82;;
76850;SDS011;65824;43.726;20.692;2023-09-19T05:33:03;9.73;;;5.05;;
76850;SDS011;65824;43.726;20.692;2023-09-19T05:35:29;8.60;;;5.32;;
76850;SDS011;65824;43.726;20.692;2023-09-19T05:37:56;12.10;;;5.03;;
76850;SDS011;65824;43.726;20.692;2023-09-19T05:40:23;9.10;;;4.55;;
76850;SDS011;65824;43.726;20.692;2023-09-19T05:42:49;9.40;;;5.07;;
76850;SDS011;65824;43.726;20.692;2023-09-19T05:45:16;10.93;;;5.60;;
76850;SDS011;65824;43.726;20.692;2023-09-19T05:47:47;12.07;;;6.05;;
76850;SDS011;65824;43.726;20.692;2023-09-19T05:50:16;9.77;;;5.13;;
76850;SDS011;65824;43.726;20.692;2023-09-19T05:52:42;12.02;;;5.22;;
76850;SDS011;65824;43.726;20.692;2023-09-19T05:55:09;9.45;;;5.38;;
76850;SDS011;65824;43.726;20.692;2023-09-19T05:57:35;8.38;;;4.90;;
76850;SDS011;65824;43.726;20.692;2023-09-19T06:00:04;9.77;;;5.53;;
76850;SDS011;65824;43.726;20.692;2023-09-19T06:02:34;12.15;;;5.53;;
76850;SDS011;65824;43.726;20.692;2023-09-19T06:05:00;7.43;;;4.97;;
76850;SDS011;65824;43.726;20.692;2023-09-19T06:07:26;8.93;;;5.22;;
76850;SDS011;65824;43.726;20.692;2023-09-19T06:09:53;7.80;;;4.80;;
76850;SDS011;65824;43.726;20.692;2023-09-19T06:12:21;10.00;;;4.32;;
76850;SDS011;65824;43.726;20.692;2023-09-19T06:14:46;10.05;;;4.97;;
76850;SDS011;65824;43.726;20.692;2023-09-19T06:17:14;7.55;;;4.88;;
76850;SDS011;65824;43.726;20.692;2023-09-19T06:19:40;8.25;;;5.03;;
76850;SDS011;65824;43.726;20.692;2023-09-19T06:22:08;8.30;;;4.75;;
76850;SDS011;65824;43.726;20.692;2023-09-19T06:24:33;9.00;;;4.68;;
76850;SDS011;65824;43.726;20.692;2023-09-19T06:27:00;7.55;;;4.82;;
76850;SDS011;65824;43.726;20.692;2023-09-19T06:29:26;8.68;;;5.10;;
76850;SDS011;65824;43.726;20.692;2023-09-19T06:31:52;7.85;;;4.80;;
76850;SDS011;65824;43.726;20.692;2023-09-19T06:34:17;10.05;;;5.22;;
76850;SDS011;65824;43.726;20.692;2023-09-19T06:36:43;7.32;;;4.72;;
76850;SDS011;65824;43.726;20.692;2023-09-19T06:39:10;9.40;;;5.10;;
76850;SDS011;65824;43.726;20.692;2023-09-19T06:41:37;8.88;;;4.82;;
76850;SDS011;65824;43.726;20.692;2023-09-19T06:44:04;8.52;;;4.70;;
76850;SDS011;65824;43.726;20.692;2023-09-19T06:46:30;10.30;;;5.10;;
76850;SDS011;65824;43.726;20.692;2023-09-19T06:48:59;7.13;;;4.75;;
76850;SDS011;65824;43.726;20.692;2023-09-19T06:51:25;8.13;;;4.63;;
76850;SDS011;65824;43.726;20.692;2023-09-19T06:53:52;10.10;;;4.70;;
76850;SDS011;65824;43.726;20.692;2023-09-19T06:56:19;7.32;;;4.35;;
76850;SDS011;65824;43.726;20.692;2023-09-19T06:58:49;7.68;;;4.93;;
76850;SDS011;65824;43.726;20.692;2023-09-19T07:01:15;7.80;;;4.60;;
76850;SDS011;65824;43.726;20.692;2023-09-19T07:03:41;8.88;;;4.85;;
76850;SDS011;65824;43.726;20.692;2023-09-19T07:06:07;7.95;;;4.85;;
76850;SDS011;65824;43.726;20.692;2023-09-19T07:08:33;9.70;;;4.75;;
76850;SDS011;65824;43.726;20.692;2023-09-19T07:10:58;10.25;;;4.88;;
76850;SDS011;65824;43.726;20.692;2023-09-19T07:13:24;7.60;;;4.68;;
76850;SDS011;65824;43.726;20.692;2023-09-19T07:15:51;9.60;;;4.82;;
76850;SDS011;65824;43.726;20.692;2023-09-19T07:18:17;9.48;;;4.85;;
76850;SDS011;65824;43.726;20.692;2023-09-19T07:20:46;8.13;;;4.63;;
76850;SDS011;65824;43.726;20.692;2023-09-19T07:23:15;8.60;;;5.00;;
76850;SDS011;65824;43.726;20.692;2023-09-19T07:25:43;9.10;;;5.07;;
76850;SDS011;65824;43.726;20.692;2023-09-19T07:28:09;8.75;;;5.03;;
76850;SDS011;65824;43.726;20.692;2023-09-19T07:30:38;10.35;;;4.88;;
76850;SDS011;65824;43.726;20.692;2023-09-19T07:33:04;7.97;;;5.13;;
76850;SDS011;65824;43.726;20.692;2023-09-19T07:35:30;8.57;;;5.10;;
76850;SDS011;65824;43.726;20.692;2023-09-19T07:37:56;7.75;;;4.85;;
76850;SDS011;65824;43.726;20.692;2023-09-19T07:40:26;9.48;;;5.60;;
76850;SDS011;65824;43.726;20.692;2023-09-19T07:42:53;9.55;;;5.38;;
76850;SDS011;65824;43.726;20.692;2023-09-19T07:45:20;9.35;;;5.10;;
76850;SDS011;65824;43.726;20.692;2023-09-19T07:47:47;9.27;;;5.35;;
76850;SDS011;65824;43.726;20.692;2023-09-19T07:50:15;7.97;;;5.28;;
76850;SDS011;65824;43.726;20.692;2023-09-19T07:52:46;9.50;;;5.22;;
76850;SDS011;65824;43.726;20.692;2023-09-19T07:55:14;8.95;;;5.57;;
76850;SDS011;65824;43.726;20.692;2023-09-19T07:57:44;8.70;;;5.40;;
76850;SDS011;65824;43.726;20.692;2023-09-19T08:00:10;10.40;;;5.43;;
76850;SDS011;65824;43.726;20.692;2023-09-19T08:02:37;9.10;;;5.63;;
76850;SDS011;65824;43.726;20.692;2023-09-19T08:05:07;8.07;;;4.85;;
76850;SDS011;65824;43.726;20.692;2023-09-19T08:07:37;9.07;;;5.15;;
76850;SDS011;65824;43.726;20.692;2023-09-19T08:10:03;8.43;;;5.53;;
76850;SDS011;65824;43.726;20.692;2023-09-19T08:12:29;7.85;;;5.60;;
76850;SDS011;65824;43.726;20.692;2023-09-19T08:14:55;44.55;;;25.75;;
76850;SDS011;65824;43.726;20.692;2023-09-19T08:17:22;45.63;;;28.75;;
76850;SDS011;65824;43.726;20.692;2023-09-19T08:19:50;31.63;;;18.90;;
76850;SDS011;65824;43.726;20.692;2023-09-19T08:22:18;9.20;;;6.28;;
76850;SDS011;65824;43.726;20.692;2023-09-19T08:24:48;23.85;;;14.40;;
76850;SDS011;65824;43.726;20.692;2023-09-19T08:27:14;21.15;;;14.20;;
76850;SDS011;65824;43.726;20.692;2023-09-19T08:29:40;16.63;;;9.65;;
76850;SDS011;65824;43.726;20.692;2023-09-19T08:32:07;15.52;;;8.93;;
76850;SDS011;65824;43.726;20.692;2023-09-19T08:34:33;13.68;;;9.35;;
76850;SDS011;65824;43.726;20.692;2023-09-19T08:37:03;10.63;;;6.85;;
76850;SDS011;65824;43.726;20.692;2023-09-19T08:39:28;11.30;;;7.18;;
76850;SDS011;65824;43.726;20.692;2023-09-19T08:42:00;13.30;;;7.18;;
76850;SDS011;65824;43.726;20.692;2023-09-19T08:44:27;11.63;;;6.53;;
76850;SDS011;65824;43.726;20.692;2023-09-19T08:46:58;13.50;;;6.40;;
76850;SDS011;65824;43.726;20.692;2023-09-19T08:49:33;13.98;;;8.93;;
76850;SDS011;65824;43.726;20.692;2023-09-19T08:52:20;14.60;;;8.95;;
76850;SDS011;65824;43.726;20.692;2023-09-19T08:54:48;14.82;;;8.60;;
76850;SDS011;65824;43.726;20.692;2023-09-19T08:57:17;9.85;;;6.57;;
76850;SDS011;65824;43.726;20.692;2023-09-19T08:59:48;13.88;;;8.93;;
76850;SDS011;65824;43.726;20.692;2023-09-19T09:02:15;18.02;;;11.85;;
76850;SDS011;65824;43.726;20.692;2023-09-19T09:04:41;18.75;;;11.40;;
76850;SDS011;65824;43.726;20.692;2023-09-19T09:07:12;13.45;;;8.57;;
76850;SDS011;65824;43.726;20.692;2023-09-19T09:09:38;8.40;;;6.10;;
76850;SDS011;65824;43.726;20.692;2023-09-19T09:12:08;12.80;;;7.40;;
76850;SDS011;65824;43.726;20.692;2023-09-19T09:14:38;11.13;;;6.72;;
76850;SDS011;65824;43.726;20.692;2023-09-19T09:17:05;11.85;;;7.13;;
76850;SDS011;65824;43.726;20.692;2023-09-19T09:19:31;13.32;;;8.70;;
76850;SDS011;65824;43.726;20.692;2023-09-19T09:22:06;11.88;;;7.88;;
76850;SDS011;65824;43.726;20.692;2023-09-19T09:24:34;12.75;;;7.10;;
76850;SDS011;65824;43.726;20.692;2023-09-19T09:27:02;14.45;;;9.10;;
76850;SDS011;65824;43.726;20.692;2023-09-19T09:29:43;20.15;;;14.10;;
76850;SDS011;65824;43.726;20.692;2023-09-19T09:34:59;16.27;;;10.82;;
76850;SDS011;65824;43.726;20.692;2023-09-19T09:37:25;15.05;;;10.43;;
76850;SDS011;65824;43.726;20.692;2023-09-19T09:39:59;16.38;;;10.32;;
76850;SDS011;65824;43.726;20.692;2023-09-19T09:42:44;15.63;;;9.63;;
76850;SDS011;65824;43.726;20.692;2023-09-19T09:45:23;18.88;;;11.43;;
76850;SDS011;65824;43.726;20.692;2023-09-19T09:48:15;16.73;;;10.82;;
76850;SDS011;65824;43.726;20.692;2023-09-19T09:50:47;15.20;;;9.02;;
76850;SDS011;65824;43.726;20.692;2023-09-19T09:53:19;15.25;;;9.65;;
76850;SDS011;65824;43.726;20.692;2023-09-19T10:01:13;18.42;;;10.43;;
76850;SDS011;65824;43.726;20.692;2023-09-19T10:03:42;12.65;;;8.30;;
76850;SDS011;65824;43.726;20.692;2023-09-19T10:06:25;17.77;;;9.98;;
76850;SDS011;65824;43.726;20.692;2023-09-19T10:09:01;14.18;;;8.43;;
76850;SDS011;65824;43.726;20.692;2023-09-19T10:11:31;18.05;;;11.05;;
76850;SDS011;65824;43.726;20.692;2023-09-19T10:13:58;15.15;;;9.00;;
76850;SDS011;65824;43.726;20.692;2023-09-19T10:16:28;14.68;;;9.05;;
76850;SDS011;65824;43.726;20.692;2023-09-19T10:18:58;16.40;;;11.15;;
76850;SDS011;65824;43.726;20.692;2023-09-19T10:21:25;13.20;;;8.25;;
76850;SDS011;65824;43.726;20.692;2023-09-19T10:23:50;18.10;;;10.05;;
76850;SDS011;65824;43.726;20.692;2023-09-19T10:26:17;15.68;;;9.90;;
76850;SDS011;65824;43.726;20.692;2023-09-19T10:28:46;17.85;;;10.00;;
76850;SDS011;65824;43.726;20.692;2023-09-19T10:31:13;16.83;;;10.90;;
76850;SDS011;65824;43.726;20.692;2023-09-19T10:33:49;14.18;;;8.88;;
76850;SDS011;65824;43.726;20.692;2023-09-19T10:36:14;16.48;;;10.18;;
76850;SDS011;65824;43.726;20.692;2023-09-19T10:38:43;14.13;;;8.27;;
76850;SDS011;65824;43.726;20.692;2023-09-19T10:41:13;15.98;;;9.77;;
76850;SDS011;65824;43.726;20.692;2023-09-19T10:43:39;14.07;;;7.70;;
76850;SDS011;65824;43.726;20.692;2023-09-19T10:46:09;15.88;;;9.40;;
76850;SDS011;65824;43.726;20.692;2023-09-19T10:48:38;18.05;;;10.98;;
76850;SDS011;65824;43.726;20.692;2023-09-19T10:51:11;14.15;;;9.40;;
76850;SDS011;65824;43.726;20.692;2023-09-19T10:58:39;16.95;;;10.07;;
76850;SDS011;65824;43.726;20.692;2023-09-19T11:01:09;14.63;;;8.60;;
76850;SDS011;65824;43.726;20.692;2023-09-19T11:03:40;14.00;;;8.90;;
76850;SDS011;65824;43.726;20.692;2023-09-19T11:06:11;12.77;;;7.55;;
76850;SDS011;65824;43.726;20.692;2023-09-19T11:11:44;21.50;;;13.68;;
76850;SDS011;65824;43.726;20.692;2023-09-19T11:30:50;13.88;;;9.07;;
76850;SDS011;65824;43.726;20.692;2023-09-19T11:33:32;20.30;;;11.00;;
76850;SDS011;65824;43.726;20.692;2023-09-19T11:36:08;18.60;;;12.05;;
76850;SDS011;65824;43.726;20.692;2023-09-19T11:43:50;16.33;;;10.98;;
76850;SDS011;65824;43.726;20.692;2023-09-19T11:46:51;17.77;;;9.98;;
76850;SDS011;65824;43.726;20.692;2023-09-19T11:49:26;15.65;;;10.88;;
76850;SDS011;65824;43.726;20.692;2023-09-19T11:51:55;18.45;;;11.85;;
76850;SDS011;65824;43.726;20.692;2023-09-19T11:54:22;16.45;;;10.48;;
76850;SDS011;65824;43.726;20.692;2023-09-19T11:56:50;23.17;;;14.95;;
76850;SDS011;65824;43.726;20.692;2023-09-19T11:59:26;18.02;;;9.20;;
76850;SDS011;65824;43.726;20.692;2023-09-19T12:01:55;17.33;;;11.20;;
76850;SDS011;65824;43.726;20.692;2023-09-19T12:04:41;16.92;;;11.88;;
76850;SDS011;65824;43.726;20.692;2023-09-19T12:07:10;17.90;;;10.82;;
76850;SDS011;65824;43.726;20.692;2023-09-19T12:12:22;16.60;;;10.02;;
76850;SDS011;65824;43.726;20.692;2023-09-19T12:14:48;19.80;;;13.13;;
76850;SDS011;65824;43.726;20.692;2023-09-19T12:17:15;21.27;;;13.40;;
76850;SDS011;65824;43.726;20.692;2023-09-19T12:19:53;23.98;;;14.30;;
76850;SDS011;65824;43.726;20.692;2023-09-19T12:22:21;18.83;;;12.82;;
76850;SDS011;65824;43.726;20.692;2023-09-19T12:24:50;16.13;;;10.80;;
76850;SDS011;65824;43.726;20.692;2023-09-19T12:27:16;14.98;;;10.18;;
76850;SDS011;65824;43.726;20.692;2023-09-19T12:29:43;16.90;;;10.63;;
76850;SDS011;65824;43.726;20.692;2023-09-19T12:32:14;16.38;;;9.82;;
76850;SDS011;65824;43.726;20.692;2023-09-19T12:34:42;12.60;;;7.93;;
76850;SDS011;65824;43.726;20.692;2023-09-19T12:37:14;21.63;;;13.93;;
76850;SDS011;65824;43.726;20.692;2023-09-19T12:39:48;18.00;;;11.43;;
76850;SDS011;65824;43.726;20.692;2023-09-19T12:42:17;15.43;;;9.75;;
76850;SDS011;65824;43.726;20.692;2023-09-19T12:44:45;16.52;;;9.85;;
76850;SDS011;65824;43.726;20.692;2023-09-19T12:47:13;13.15;;;9.32;;
76850;SDS011;65824;43.726;20.692;2023-09-19T12:52:48;14.07;;;10.40;;
76850;SDS011;65824;43.726;20.692;2023-09-19T12:55:21;22.25;;;10.93;;
76850;SDS011;65824;43.726;20.692;2023-09-19T12:58:11;19.55;;;12.98;;
76850;SDS011;65824;43.726;20.692;2023-09-19T13:00:41;22.30;;;16.02;;
76850;SDS011;65824;43.726;20.692;2023-09-19T13:03:18;14.93;;;9.43;;
76850;SDS011;65824;43.726;20.692;2023-09-19T13:08:20;17.05;;;10.57;;
76850;SDS011;65824;43.726;20.692;2023-09-19T13:13:45;18.52;;;11.57;;
76850;SDS011;65824;43.726;20.692;2023-09-19T13:16:20;19.48;;;13.20;;
76850;SDS011;65824;43.726;20.692;2023-09-19T13:18:55;20.75;;;13.55;;
76850;SDS011;65824;43.726;20.692;2023-09-19T13:21:27;13.38;;;9.32;;
76850;SDS011;65824;43.726;20.692;2023-09-19T13:23:56;20.70;;;12.88;;
76850;SDS011;65824;43.726;20.692;2023-09-19T13:26:42;14.68;;;10.63;;
76850;SDS011;65824;43.726;20.692;2023-09-19T13:29:09;18.10;;;12.98;;
76850;SDS011;65824;43.726;20.692;2023-09-19T13:31:34;23.73;;;16.27;;
76850;SDS011;65824;43.726;20.692;2023-09-19T13:34:06;15.32;;;11.43;;
76850;SDS011;65824;43.726;20.692;2023-09-19T13:36:32;19.50;;;12.45;;
76850;SDS011;65824;43.726;20.692;2023-09-19T13:38:58;17.83;;;10.10;;
76850;SDS011;65824;43.726;20.692;2023-09-19T13:41:25;20.10;;;12.90;;
76850;SDS011;65824;43.726;20.692;2023-09-19T13:43:51;23.25;;;14.48;;
76850;SDS011;65824;43.726;20.692;2023-09-19T13:46:16;19.15;;;11.63;;
76850;SDS011;65824;43.726;20.692;2023-09-19T13:48:50;17.63;;;11.93;;
76850;SDS011;65824;43.726;20.692;2023-09-19T13:51:17;18.52;;;12.65;;
76850;SDS011;65824;43.726;20.692;2023-09-19T13:53:44;17.25;;;11.57;;
76850;SDS011;65824;43.726;20.692;2023-09-19T13:56:09;17.40;;;12.43;;
76850;SDS011;65824;43.726;20.692;2023-09-19T13:58:36;19.27;;;11.50;;
76850;SDS011;65824;43.726;20.692;2023-09-19T14:01:01;22.10;;;13.65;;
76850;SDS011;65824;43.726;20.692;2023-09-19T14:03:27;17.10;;;11.00;;
76850;SDS011;65824;43.726;20.692;2023-09-19T14:05:53;18.45;;;12.60;;
76850;SDS011;65824;43.726;20.692;2023-09-19T14:08:19;19.98;;;13.18;;
76850;SDS011;65824;43.726;20.692;2023-09-19T14:10:45;19.27;;;13.32;;
76850;SDS011;65824;43.726;20.692;2023-09-19T14:13:12;17.95;;;11.70;;
76850;SDS011;65824;43.726;20.692;2023-09-19T14:15:40;16.38;;;11.38;;
76850;SDS011;65824;43.726;20.692;2023-09-19T14:18:07;20.33;;;12.65;;
76850;SDS011;65824;43.726;20.692;2023-09-19T14:20:37;16.73;;;11.80;;
76850;SDS011;65824;43.726;20.692;2023-09-19T14:23:04;20.17;;;13.05;;
76850;SDS011;65824;43.726;20.692;2023-09-19T14:25:29;19.45;;;12.98;;
76850;SDS011;65824;43.726;20.692;2023-09-19T14:27:55;39.90;;;27.75;;
76850;SDS011;65824;43.726;20.692;2023-09-19T14:30:20;23.17;;;15.90;;
76850;SDS011;65824;43.726;20.692;2023-09-19T14:32:46;18.10;;;12.90;;
76850;SDS011;65824;43.726;20.692;2023-09-19T14:35:12;21.95;;;13.40;;
76850;SDS011;65824;43.726;20.692;2023-09-19T14:37:39;19.83;;;12.57;;
76850;SDS011;65824;43.726;20.692;2023-09-19T14:40:05;23.60;;;13.60;;
76850;SDS011;65824;43.726;20.692;2023-09-19T14:42:34;38.47;;;26.65;;
76850;SDS011;65824;43.726;20.692;2023-09-19T14:45:02;17.83;;;11.52;;
76850;SDS011;65824;43.726;20.692;2023-09-19T14:47:29;30.75;;;20.98;;
76850;SDS011;65824;43.726;20.692;2023-09-19T14:49:56;29.63;;;18.25;;
76850;SDS011;65824;43.726;20.692;2023-09-19T14:52:23;23.65;;;15.07;;
76850;SDS011;65824;43.726;20.692;2023-09-19T14:54:48;30.77;;;19.13;;
76850;SDS011;65824;43.726;20.692;2023-09-19T14:57:16;32.95;;;19.58;;
76850;SDS011;65824;43.726;20.692;2023-09-19T14:59:42;35.72;;;25.05;;
76850;SDS011;65824;43.726;20.692;2023-09-19T15:02:07;23.92;;;12.27;;
76850;SDS011;65824;43.726;20.692;2023-09-19T15:04:36;21.30;;;11.63;;
76850;SDS011;65824;43.726;20.692;2023-09-19T15:07:02;19.40;;;11.68;;
76850;SDS011;65824;43.726;20.692;2023-09-19T15:09:28;21.13;;;11.95;;
76850;SDS011;65824;43.726;20.692;2023-09-19T15:11:53;20.90;;;13.63;;
76850;SDS011;65824;43.726;20.692;2023-09-19T15:14:19;20.88;;;13.68;;
76850;SDS011;65824;43.726;20.692;2023-09-19T15:16:46;21.73;;;12.80;;
76850;SDS011;65824;43.726;20.692;2023-09-19T15:19:12;27.83;;;15.43;;
76850;SDS011;65824;43.726;20.692;2023-09-19T15:21:38;30.25;;;16.80;;
76850;SDS011;65824;43.726;20.692;2023-09-19T15:24:04;20.63;;;10.20;;
76850;SDS011;65824;43.726;20.692;2023-09-19T15:26:36;24.60;;;11.65;;
76850;SDS011;65824;43.726;20.692;2023-09-19T15:29:07;18.73;;;11.88;;